sensor_id;sensor_type;location;lat;lon;timestamp;temperature;humidity
12604;DHT22;6367;52.508;13.284;2022-12-18T00:02:01;-1.30;97.90
12604;DHT22;6367;52.508;13.284;2022-12-18T00:04:27;-0.50;98.30
12604;DHT22;6367;52.508;13.284;2022-12-18T00:06:53;-1.20;98.20
12604;DHT22;6367;52.508;13.284;2022-12-18T00:09:19;-1.10;98.00
12604;DHT22;6367;52.508;13.284;2022-12-18T00:11:45;-1.00;97.90
12604;DHT22;6367;52.508;13.284;2022-12-18T00:14:12;-0.20;98.20
12604;DHT22;6367;52.508;13.284;2022-12-18T00:16:39;-1.00;98.00
12604;DHT22;6367;52.508;13.284;2022-12-18T00:19:05;-0.40;98.00
12604;DHT22;6367;52.508;13.284;2022-12-18T00:21:33;-0.80;97.70
12604;DHT22;6367;52.508;13.284;2022-12-18T00:23:59;-1.00;97.40
12604;DHT22;6367;52.508;13.284;2022-12-18T00:26:28;-1.00;97.70
12604;DHT22;6367;52.508;13.284;2022-12-18T00:28:54;-1.20;96.90
12604;DHT22;6367;52.508;13.284;2022-12-18T00:31:22;-1.30;97.10
12604;DHT22;6367;52.508;13.284;2022-12-18T00:33:49;-1.40;97.10
12604;DHT22;6367;52.508;13.284;2022-12-18T00:36:24;-1.50;97.10
12604;DHT22;6367;52.508;13.284;2022-12-18T00:38:50;-1.60;96.90
12604;DHT22;6367;52.508;13.284;2022-12-18T00:41:17;-1.70;97.00
12604;DHT22;6367;52.508;13.284;2022-12-18T00:44:04;-1.70;97.30
12604;DHT22;6367;52.508;13.284;2022-12-18T00:46:30;-1.60;97.60
12604;DHT22;6367;52.508;13.284;2022-12-18T00:48:56;-1.20;97.80
12604;DHT22;6367;52.508;13.284;2022-12-18T00:51:22;-1.30;97.30
12604;DHT22;6367;52.508;13.284;2022-12-18T00:53:47;-1.80;97.30
12604;DHT22;6367;52.508;13.284;2022-12-18T00:56:13;-1.90;97.40
12604;DHT22;6367;52.508;13.284;2022-12-18T00:58:39;-1.90;97.50
12604;DHT22;6367;52.508;13.284;2022-12-18T01:01:05;-1.50;98.10
12604;DHT22;6367;52.508;13.284;2022-12-18T01:03:30;-1.80;97.80
12604;DHT22;6367;52.508;13.284;2022-12-18T01:05:56;-1.80;97.80
12604;DHT22;6367;52.508;13.284;2022-12-18T01:08:23;-1.90;97.60
12604;DHT22;6367;52.508;13.284;2022-12-18T01:10:48;-1.90;97.70
12604;DHT22;6367;52.508;13.284;2022-12-18T01:13:14;-2.00;97.50
12604;DHT22;6367;52.508;13.284;2022-12-18T01:15:40;-2.10;97.90
12604;DHT22;6367;52.508;13.284;2022-12-18T01:18:06;-2.10;97.80
12604;DHT22;6367;52.508;13.284;2022-12-18T01:20:32;-2.10;97.80
12604;DHT22;6367;52.508;13.284;2022-12-18T01:22:58;-2.10;97.90
12604;DHT22;6367;52.508;13.284;2022-12-18T01:25:24;-2.30;98.00
12604;DHT22;6367;52.508;13.284;2022-12-18T01:27:49;-2.40;98.40
12604;DHT22;6367;52.508;13.284;2022-12-18T01:30:15;-2.40;98.80
12604;DHT22;6367;52.508;13.284;2022-12-18T01:32:41;-1.60;99.00
12604;DHT22;6367;52.508;13.284;2022-12-18T01:35:07;-1.80;98.90
12604;DHT22;6367;52.508;13.284;2022-12-18T01:37:32;-2.20;99.00
12604;DHT22;6367;52.508;13.284;2022-12-18T01:39:58;-2.10;99.00
12604;DHT22;6367;52.508;13.284;2022-12-18T01:42:24;-2.20;99.30
12604;DHT22;6367;52.508;13.284;2022-12-18T01:47:46;-2.20;98.60
12604;DHT22;6367;52.508;13.284;2022-12-18T01:50:34;-2.30;98.80
12604;DHT22;6367;52.508;13.284;2022-12-18T01:53:13;-2.20;98.90
12604;DHT22;6367;52.508;13.284;2022-12-18T01:55:48;-2.10;98.80
12604;DHT22;6367;52.508;13.284;2022-12-18T01:58:16;-2.10;99.00
12604;DHT22;6367;52.508;13.284;2022-12-18T02:00:42;-2.00;98.90
12604;DHT22;6367;52.508;13.284;2022-12-18T02:03:08;-1.90;98.70
12604;DHT22;6367;52.508;13.284;2022-12-18T02:05:59;-1.80;99.00
12604;DHT22;6367;52.508;13.284;2022-12-18T02:08:37;-1.70;99.00
12604;DHT22;6367;52.508;13.284;2022-12-18T02:18:47;-1.50;98.60
12604;DHT22;6367;52.508;13.284;2022-12-18T02:21:28;-1.10;98.50
12604;DHT22;6367;52.508;13.284;2022-12-18T02:24:24;-1.40;97.90
12604;DHT22;6367;52.508;13.284;2022-12-18T02:27:00;-1.40;97.80
12604;DHT22;6367;52.508;13.284;2022-12-18T02:29:37;-1.40;97.90
12604;DHT22;6367;52.508;13.284;2022-12-18T02:32:08;-1.30;97.80
12604;DHT22;6367;52.508;13.284;2022-12-18T02:34:37;-0.80;97.90
12604;DHT22;6367;52.508;13.284;2022-12-18T02:37:07;-1.30;97.60
12604;DHT22;6367;52.508;13.284;2022-12-18T02:39:35;-1.30;97.60
12604;DHT22;6367;52.508;13.284;2022-12-18T02:42:02;-1.30;97.60
12604;DHT22;6367;52.508;13.284;2022-12-18T02:44:46;-1.30;97.30
12604;DHT22;6367;52.508;13.284;2022-12-18T02:47:14;-1.30;97.40
12604;DHT22;6367;52.508;13.284;2022-12-18T03:00:23;-0.70;97.50
12604;DHT22;6367;52.508;13.284;2022-12-18T03:03:03;-1.00;96.80
12604;DHT22;6367;52.508;13.284;2022-12-18T03:05:41;-1.20;97.00
12604;DHT22;6367;52.508;13.284;2022-12-18T03:08:22;-1.20;96.60
12604;DHT22;6367;52.508;13.284;2022-12-18T03:11:02;-1.20;96.50
12604;DHT22;6367;52.508;13.284;2022-12-18T03:13:35;-1.50;96.50
12604;DHT22;6367;52.508;13.284;2022-12-18T03:16:04;-1.50;96.60
12604;DHT22;6367;52.508;13.284;2022-12-18T03:18:47;-1.70;96.50
12604;DHT22;6367;52.508;13.284;2022-12-18T03:21:14;-1.70;96.70
12604;DHT22;6367;52.508;13.284;2022-12-18T03:23:48;-1.70;97.10
12604;DHT22;6367;52.508;13.284;2022-12-18T03:26:18;-1.70;97.10
12604;DHT22;6367;52.508;13.284;2022-12-18T03:28:59;-1.80;97.20
12604;DHT22;6367;52.508;13.284;2022-12-18T03:31:27;-1.90;96.90
12604;DHT22;6367;52.508;13.284;2022-12-18T03:33:57;-2.00;96.90
12604;DHT22;6367;52.508;13.284;2022-12-18T03:36:24;-2.00;97.00
12604;DHT22;6367;52.508;13.284;2022-12-18T03:38:50;-2.10;96.90
12604;DHT22;6367;52.508;13.284;2022-12-18T03:44:14;-2.30;97.30
12604;DHT22;6367;52.508;13.284;2022-12-18T03:49:40;-2.20;98.20
12604;DHT22;6367;52.508;13.284;2022-12-18T03:52:20;-2.20;97.90
12604;DHT22;6367;52.508;13.284;2022-12-18T03:54:50;-2.10;98.10
12604;DHT22;6367;52.508;13.284;2022-12-18T03:57:19;-2.10;97.40
12604;DHT22;6367;52.508;13.284;2022-12-18T03:59:47;-2.20;97.60
12604;DHT22;6367;52.508;13.284;2022-12-18T04:02:16;-2.20;97.60
12604;DHT22;6367;52.508;13.284;2022-12-18T04:04:43;-2.30;97.70
12604;DHT22;6367;52.508;13.284;2022-12-18T04:07:10;-2.20;97.90
12604;DHT22;6367;52.508;13.284;2022-12-18T04:09:38;-2.40;98.00
12604;DHT22;6367;52.508;13.284;2022-12-18T04:12:05;-2.30;97.90
12604;DHT22;6367;52.508;13.284;2022-12-18T04:14:31;-2.40;98.10
12604;DHT22;6367;52.508;13.284;2022-12-18T04:17:01;-2.40;97.90
12604;DHT22;6367;52.508;13.284;2022-12-18T04:19:27;-2.50;98.00
12604;DHT22;6367;52.508;13.284;2022-12-18T04:21:52;-2.40;98.40
12604;DHT22;6367;52.508;13.284;2022-12-18T04:24:18;-2.30;98.30
12604;DHT22;6367;52.508;13.284;2022-12-18T04:26:44;-2.20;98.40
12604;DHT22;6367;52.508;13.284;2022-12-18T04:29:09;-2.30;98.10
12604;DHT22;6367;52.508;13.284;2022-12-18T04:31:35;-2.20;98.20
12604;DHT22;6367;52.508;13.284;2022-12-18T04:34:01;-2.20;98.30
12604;DHT22;6367;52.508;13.284;2022-12-18T04:36:26;-2.20;98.30
12604;DHT22;6367;52.508;13.284;2022-12-18T04:38:52;-2.00;98.10
12604;DHT22;6367;52.508;13.284;2022-12-18T04:41:18;-2.10;98.00
12604;DHT22;6367;52.508;13.284;2022-12-18T04:43:44;-2.20;97.90
12604;DHT22;6367;52.508;13.284;2022-12-18T04:46:09;-2.30;97.80
12604;DHT22;6367;52.508;13.284;2022-12-18T04:48:36;-2.30;97.80
12604;DHT22;6367;52.508;13.284;2022-12-18T04:51:01;-2.40;97.90
12604;DHT22;6367;52.508;13.284;2022-12-18T04:53:27;-2.40;97.90
12604;DHT22;6367;52.508;13.284;2022-12-18T04:56:10;-2.40;97.90
12604;DHT22;6367;52.508;13.284;2022-12-18T04:58:37;-2.40;98.10
12604;DHT22;6367;52.508;13.284;2022-12-18T05:01:04;-2.30;98.30
12604;DHT22;6367;52.508;13.284;2022-12-18T05:03:29;-2.40;97.70
12604;DHT22;6367;52.508;13.284;2022-12-18T05:05:56;-2.40;97.90
12604;DHT22;6367;52.508;13.284;2022-12-18T05:08:22;-2.30;98.10
12604;DHT22;6367;52.508;13.284;2022-12-18T05:10:48;-2.30;98.10
12604;DHT22;6367;52.508;13.284;2022-12-18T05:13:14;-2.20;98.00
12604;DHT22;6367;52.508;13.284;2022-12-18T05:15:39;-2.20;98.10
12604;DHT22;6367;52.508;13.284;2022-12-18T05:18:05;-2.10;97.80
12604;DHT22;6367;52.508;13.284;2022-12-18T05:20:31;-2.10;97.80
12604;DHT22;6367;52.508;13.284;2022-12-18T05:22:57;-2.10;97.50
12604;DHT22;6367;52.508;13.284;2022-12-18T05:25:23;-2.30;97.80
12604;DHT22;6367;52.508;13.284;2022-12-18T05:27:49;-2.30;97.90
12604;DHT22;6367;52.508;13.284;2022-12-18T05:30:15;-2.10;98.10
12604;DHT22;6367;52.508;13.284;2022-12-18T05:32:41;-2.10;98.20
12604;DHT22;6367;52.508;13.284;2022-12-18T05:35:08;-2.10;98.20
12604;DHT22;6367;52.508;13.284;2022-12-18T05:37:34;-2.10;98.20
12604;DHT22;6367;52.508;13.284;2022-12-18T05:40:01;-2.00;98.00
12604;DHT22;6367;52.508;13.284;2022-12-18T05:42:27;-1.50;98.20
12604;DHT22;6367;52.508;13.284;2022-12-18T05:44:52;-1.80;98.00
12604;DHT22;6367;52.508;13.284;2022-12-18T05:47:18;-2.00;97.70
12604;DHT22;6367;52.508;13.284;2022-12-18T05:49:43;-1.90;97.80
12604;DHT22;6367;52.508;13.284;2022-12-18T05:52:09;-1.80;97.40
12604;DHT22;6367;52.508;13.284;2022-12-18T05:54:35;-1.90;96.90
12604;DHT22;6367;52.508;13.284;2022-12-18T05:57:00;-2.20;96.70
12604;DHT22;6367;52.508;13.284;2022-12-18T05:59:26;-2.40;96.90
12604;DHT22;6367;52.508;13.284;2022-12-18T06:01:52;-1.90;97.50
12604;DHT22;6367;52.508;13.284;2022-12-18T06:04:17;-2.50;97.50
12604;DHT22;6367;52.508;13.284;2022-12-18T06:06:43;-2.50;97.60
12604;DHT22;6367;52.508;13.284;2022-12-18T06:09:09;-2.40;97.90
12604;DHT22;6367;52.508;13.284;2022-12-18T06:11:38;-2.40;98.10
12604;DHT22;6367;52.508;13.284;2022-12-18T06:14:05;-2.30;98.30
12604;DHT22;6367;52.508;13.284;2022-12-18T06:16:31;-2.20;98.40
12604;DHT22;6367;52.508;13.284;2022-12-18T06:19:01;-2.10;98.00
12604;DHT22;6367;52.508;13.284;2022-12-18T06:21:28;-2.10;98.00
12604;DHT22;6367;52.508;13.284;2022-12-18T06:23:54;-2.20;98.00
12604;DHT22;6367;52.508;13.284;2022-12-18T06:26:20;-2.00;97.50
12604;DHT22;6367;52.508;13.284;2022-12-18T06:28:46;-2.00;97.30
12604;DHT22;6367;52.508;13.284;2022-12-18T06:31:12;-2.30;97.80
12604;DHT22;6367;52.508;13.284;2022-12-18T06:33:38;-2.30;97.70
12604;DHT22;6367;52.508;13.284;2022-12-18T06:36:07;-2.30;97.60
12604;DHT22;6367;52.508;13.284;2022-12-18T06:38:34;-2.20;97.10
12604;DHT22;6367;52.508;13.284;2022-12-18T06:41:00;-2.30;97.00
12604;DHT22;6367;52.508;13.284;2022-12-18T06:43:26;-2.30;97.00
12604;DHT22;6367;52.508;13.284;2022-12-18T06:45:58;-2.30;97.20
12604;DHT22;6367;52.508;13.284;2022-12-18T06:48:24;-2.40;97.30
12604;DHT22;6367;52.508;13.284;2022-12-18T06:50:49;-2.50;97.30
12604;DHT22;6367;52.508;13.284;2022-12-18T06:53:15;-2.60;97.40
12604;DHT22;6367;52.508;13.284;2022-12-18T06:55:41;-2.50;98.00
12604;DHT22;6367;52.508;13.284;2022-12-18T06:58:06;-2.50;98.00
12604;DHT22;6367;52.508;13.284;2022-12-18T07:00:32;-2.40;97.80
12604;DHT22;6367;52.508;13.284;2022-12-18T07:02:58;-2.50;97.70
12604;DHT22;6367;52.508;13.284;2022-12-18T07:05:23;-2.50;98.10
12604;DHT22;6367;52.508;13.284;2022-12-18T07:07:49;-2.30;97.90
12604;DHT22;6367;52.508;13.284;2022-12-18T07:10:14;-2.40;97.90
12604;DHT22;6367;52.508;13.284;2022-12-18T07:12:40;-2.40;98.00
12604;DHT22;6367;52.508;13.284;2022-12-18T07:15:07;-2.40;98.10
12604;DHT22;6367;52.508;13.284;2022-12-18T07:17:32;-2.30;97.90
12604;DHT22;6367;52.508;13.284;2022-12-18T07:19:58;-2.30;98.00
12604;DHT22;6367;52.508;13.284;2022-12-18T07:22:25;-2.30;98.00
12604;DHT22;6367;52.508;13.284;2022-12-18T07:24:51;-2.20;97.70
12604;DHT22;6367;52.508;13.284;2022-12-18T07:27:17;-2.20;98.00
12604;DHT22;6367;52.508;13.284;2022-12-18T07:29:42;-2.50;97.70
12604;DHT22;6367;52.508;13.284;2022-12-18T07:32:08;-2.30;97.90
12604;DHT22;6367;52.508;13.284;2022-12-18T07:34:34;-2.20;98.30
12604;DHT22;6367;52.508;13.284;2022-12-18T07:37:00;-1.80;98.20
12604;DHT22;6367;52.508;13.284;2022-12-18T07:39:25;-2.20;98.10
12604;DHT22;6367;52.508;13.284;2022-12-18T07:41:51;-2.10;98.60
12604;DHT22;6367;52.508;13.284;2022-12-18T07:44:35;-2.10;98.10
12604;DHT22;6367;52.508;13.284;2022-12-18T07:47:02;-2.10;98.10
12604;DHT22;6367;52.508;13.284;2022-12-18T07:49:27;-2.20;97.90
12604;DHT22;6367;52.508;13.284;2022-12-18T07:51:55;-2.30;98.30
12604;DHT22;6367;52.508;13.284;2022-12-18T07:54:22;-2.40;98.60
12604;DHT22;6367;52.508;13.284;2022-12-18T07:56:47;-2.40;98.70
12604;DHT22;6367;52.508;13.284;2022-12-18T07:59:13;-2.30;98.80
12604;DHT22;6367;52.508;13.284;2022-12-18T08:01:38;-2.30;98.70
12604;DHT22;6367;52.508;13.284;2022-12-18T08:04:04;-1.90;98.60
12604;DHT22;6367;52.508;13.284;2022-12-18T08:06:30;-2.30;98.10
12604;DHT22;6367;52.508;13.284;2022-12-18T08:08:56;-2.30;98.30
12604;DHT22;6367;52.508;13.284;2022-12-18T08:11:24;-2.90;98.10
12604;DHT22;6367;52.508;13.284;2022-12-18T08:13:50;-2.30;98.10
12604;DHT22;6367;52.508;13.284;2022-12-18T08:16:16;-2.40;98.20
12604;DHT22;6367;52.508;13.284;2022-12-18T08:18:41;-2.40;98.50
12604;DHT22;6367;52.508;13.284;2022-12-18T08:21:19;-2.00;98.80
12604;DHT22;6367;52.508;13.284;2022-12-18T08:23:46;-2.40;98.70
12604;DHT22;6367;52.508;13.284;2022-12-18T08:26:13;-2.30;98.80
12604;DHT22;6367;52.508;13.284;2022-12-18T08:28:39;-2.40;98.60
12604;DHT22;6367;52.508;13.284;2022-12-18T08:31:05;-2.40;99.00
12604;DHT22;6367;52.508;13.284;2022-12-18T08:33:31;-1.60;99.30
12604;DHT22;6367;52.508;13.284;2022-12-18T08:35:58;-2.20;99.00
12604;DHT22;6367;52.508;13.284;2022-12-18T08:38:24;-1.70;99.00
12604;DHT22;6367;52.508;13.284;2022-12-18T08:40:54;-1.60;99.20
12604;DHT22;6367;52.508;13.284;2022-12-18T08:43:19;-2.30;99.20
12604;DHT22;6367;52.508;13.284;2022-12-18T08:46:03;-2.20;99.30
12604;DHT22;6367;52.508;13.284;2022-12-18T08:48:29;-2.10;99.10
12604;DHT22;6367;52.508;13.284;2022-12-18T08:50:59;-2.10;98.90
12604;DHT22;6367;52.508;13.284;2022-12-18T08:53:25;-2.10;99.20
12604;DHT22;6367;52.508;13.284;2022-12-18T08:55:51;-2.10;99.40
12604;DHT22;6367;52.508;13.284;2022-12-18T08:58:17;-2.00;99.00
12604;DHT22;6367;52.508;13.284;2022-12-18T09:00:43;-2.10;99.00
12604;DHT22;6367;52.508;13.284;2022-12-18T09:03:16;-2.00;99.00
12604;DHT22;6367;52.508;13.284;2022-12-18T09:05:43;-1.90;98.90
12604;DHT22;6367;52.508;13.284;2022-12-18T09:08:09;-2.00;99.20
12604;DHT22;6367;52.508;13.284;2022-12-18T09:10:41;-1.90;99.20
12604;DHT22;6367;52.508;13.284;2022-12-18T09:13:07;-1.60;99.50
12604;DHT22;6367;52.508;13.284;2022-12-18T09:15:33;-1.90;99.50
12604;DHT22;6367;52.508;13.284;2022-12-18T09:17:58;-1.90;99.50
12604;DHT22;6367;52.508;13.284;2022-12-18T09:20:24;-1.70;99.30
12604;DHT22;6367;52.508;13.284;2022-12-18T09:22:49;-1.80;98.70
12604;DHT22;6367;52.508;13.284;2022-12-18T09:25:15;-2.00;99.10
12604;DHT22;6367;52.508;13.284;2022-12-18T09:27:41;-2.10;98.70
12604;DHT22;6367;52.508;13.284;2022-12-18T09:30:07;-2.20;98.90
12604;DHT22;6367;52.508;13.284;2022-12-18T09:32:33;-2.20;99.20
12604;DHT22;6367;52.508;13.284;2022-12-18T09:34:58;-2.10;99.50
12604;DHT22;6367;52.508;13.284;2022-12-18T09:37:24;-2.10;99.40
12604;DHT22;6367;52.508;13.284;2022-12-18T09:39:50;-2.00;99.20
12604;DHT22;6367;52.508;13.284;2022-12-18T09:42:20;-2.00;99.10
12604;DHT22;6367;52.508;13.284;2022-12-18T09:44:53;-2.10;99.00
12604;DHT22;6367;52.508;13.284;2022-12-18T09:47:33;-2.00;99.20
12604;DHT22;6367;52.508;13.284;2022-12-18T09:50:04;-1.90;99.00
12604;DHT22;6367;52.508;13.284;2022-12-18T09:52:34;-2.00;98.80
12604;DHT22;6367;52.508;13.284;2022-12-18T09:55:24;-2.10;99.10
12604;DHT22;6367;52.508;13.284;2022-12-18T09:57:56;-2.00;99.50
12604;DHT22;6367;52.508;13.284;2022-12-18T10:00:24;-2.20;99.30
12604;DHT22;6367;52.508;13.284;2022-12-18T10:02:52;-2.10;99.50
12604;DHT22;6367;52.508;13.284;2022-12-18T10:11:03;-1.80;99.90
12604;DHT22;6367;52.508;13.284;2022-12-18T10:13:52;-1.80;99.70
12604;DHT22;6367;52.508;13.284;2022-12-18T10:16:30;-1.80;99.90
12604;DHT22;6367;52.508;13.284;2022-12-18T10:21:45;-1.60;99.90
12604;DHT22;6367;52.508;13.284;2022-12-18T10:24:26;-1.20;99.90
12604;DHT22;6367;52.508;13.284;2022-12-18T10:27:15;-1.50;99.80
12604;DHT22;6367;52.508;13.284;2022-12-18T10:29:42;-1.60;99.50
12604;DHT22;6367;52.508;13.284;2022-12-18T10:32:18;-1.40;99.80
12604;DHT22;6367;52.508;13.284;2022-12-18T10:34:46;-1.50;99.50
12604;DHT22;6367;52.508;13.284;2022-12-18T10:37:16;-1.60;99.40
12604;DHT22;6367;52.508;13.284;2022-12-18T10:39:43;-1.50;99.70
12604;DHT22;6367;52.508;13.284;2022-12-18T10:42:17;-1.50;99.70
12604;DHT22;6367;52.508;13.284;2022-12-18T10:44:44;-1.30;99.90
12604;DHT22;6367;52.508;13.284;2022-12-18T10:47:15;-1.40;99.90
12604;DHT22;6367;52.508;13.284;2022-12-18T10:49:53;-0.70;99.90
12604;DHT22;6367;52.508;13.284;2022-12-18T10:52:22;-1.30;99.70
12604;DHT22;6367;52.508;13.284;2022-12-18T10:54:53;-0.90;99.80
12604;DHT22;6367;52.508;13.284;2022-12-18T10:59:58;-1.30;99.90
12604;DHT22;6367;52.508;13.284;2022-12-18T11:02:37;-1.30;99.90
12604;DHT22;6367;52.508;13.284;2022-12-18T11:05:30;-1.20;99.90
12604;DHT22;6367;52.508;13.284;2022-12-18T11:07:57;-1.30;99.90
12604;DHT22;6367;52.508;13.284;2022-12-18T11:10:36;-1.30;99.90
12604;DHT22;6367;52.508;13.284;2022-12-18T11:13:20;-1.30;99.90
12604;DHT22;6367;52.508;13.284;2022-12-18T11:15:47;-1.20;99.90
12604;DHT22;6367;52.508;13.284;2022-12-18T11:18:38;-1.00;99.90
12604;DHT22;6367;52.508;13.284;2022-12-18T11:21:08;-0.40;99.90
12604;DHT22;6367;52.508;13.284;2022-12-18T11:23:49;-1.10;99.90
12604;DHT22;6367;52.508;13.284;2022-12-18T11:26:16;-1.10;99.90
12604;DHT22;6367;52.508;13.284;2022-12-18T11:28:51;-1.20;99.90
12604;DHT22;6367;52.508;13.284;2022-12-18T11:33:59;-1.00;99.90
12604;DHT22;6367;52.508;13.284;2022-12-18T11:36:29;-0.90;99.90
12604;DHT22;6367;52.508;13.284;2022-12-18T11:38:59;-0.80;99.90
12604;DHT22;6367;52.508;13.284;2022-12-18T11:41:35;0.00;99.90
12604;DHT22;6367;52.508;13.284;2022-12-18T11:44:52;-0.70;99.90
12604;DHT22;6367;52.508;13.284;2022-12-18T11:47:21;-0.20;99.90
12604;DHT22;6367;52.508;13.284;2022-12-18T11:49:51;-0.80;99.90
12604;DHT22;6367;52.508;13.284;2022-12-18T11:52:23;-0.40;99.90
12604;DHT22;6367;52.508;13.284;2022-12-18T11:54:55;-0.90;99.90
12604;DHT22;6367;52.508;13.284;2022-12-18T11:57:45;-0.30;99.90
12604;DHT22;6367;52.508;13.284;2022-12-18T12:00:16;-0.90;99.90
12604;DHT22;6367;52.508;13.284;2022-12-18T12:14:33;-0.40;99.90
12604;DHT22;6367;52.508;13.284;2022-12-18T12:25:54;-0.40;99.90
12604;DHT22;6367;52.508;13.284;2022-12-18T12:34:19;-0.50;99.90
12604;DHT22;6367;52.508;13.284;2022-12-18T12:39:37;-0.50;99.90
12604;DHT22;6367;52.508;13.284;2022-12-18T12:42:06;-0.50;99.90
12604;DHT22;6367;52.508;13.284;2022-12-18T12:44:56;-0.40;99.90
12604;DHT22;6367;52.508;13.284;2022-12-18T12:47:32;-0.50;99.90
12604;DHT22;6367;52.508;13.284;2022-12-18T12:50:01;-0.50;99.90
12604;DHT22;6367;52.508;13.284;2022-12-18T12:52:41;-0.50;99.90
12604;DHT22;6367;52.508;13.284;2022-12-18T12:55:18;-0.50;99.90
12604;DHT22;6367;52.508;13.284;2022-12-18T12:57:54;-0.40;99.90
12604;DHT22;6367;52.508;13.284;2022-12-18T13:00:21;-0.40;99.90
12604;DHT22;6367;52.508;13.284;2022-12-18T13:05:45;-0.30;99.90
12604;DHT22;6367;52.508;13.284;2022-12-18T13:08:28;-0.40;99.90
12604;DHT22;6367;52.508;13.284;2022-12-18T13:10:55;-0.40;99.90
12604;DHT22;6367;52.508;13.284;2022-12-18T13:13:53;-0.80;99.90
12604;DHT22;6367;52.508;13.284;2022-12-18T13:16:21;-0.20;99.90
12604;DHT22;6367;52.508;13.284;2022-12-18T13:18:51;-0.40;99.90
12604;DHT22;6367;52.508;13.284;2022-12-18T13:23:47;-0.40;99.90
12604;DHT22;6367;52.508;13.284;2022-12-18T13:36:46;0.10;99.90
12604;DHT22;6367;52.508;13.284;2022-12-18T13:41:45;0.00;99.90
12604;DHT22;6367;52.508;13.284;2022-12-18T13:44:37;0.00;99.90
12604;DHT22;6367;52.508;13.284;2022-12-18T13:47:04;0.00;99.90
12604;DHT22;6367;52.508;13.284;2022-12-18T13:49:37;-0.10;99.90
12604;DHT22;6367;52.508;13.284;2022-12-18T13:52:21;0.00;99.90
12604;DHT22;6367;52.508;13.284;2022-12-18T13:54:51;0.00;99.90
12604;DHT22;6367;52.508;13.284;2022-12-18T13:57:43;-0.20;99.70
12604;DHT22;6367;52.508;13.284;2022-12-18T14:02:50;-0.50;99.90
12604;DHT22;6367;52.508;13.284;2022-12-18T14:05:34;-0.60;99.90
12604;DHT22;6367;52.508;13.284;2022-12-18T14:08:06;-0.40;99.90
12604;DHT22;6367;52.508;13.284;2022-12-18T14:10:33;-0.40;99.90
12604;DHT22;6367;52.508;13.284;2022-12-18T14:13:05;-0.50;99.90
12604;DHT22;6367;52.508;13.284;2022-12-18T14:15:34;-0.40;99.90
12604;DHT22;6367;52.508;13.284;2022-12-18T14:18:03;-0.40;99.90
12604;DHT22;6367;52.508;13.284;2022-12-18T14:20:34;-0.40;99.90
12604;DHT22;6367;52.508;13.284;2022-12-18T14:23:00;-0.30;99.90
12604;DHT22;6367;52.508;13.284;2022-12-18T14:25:27;-0.50;99.90
12604;DHT22;6367;52.508;13.284;2022-12-18T14:28:07;-0.50;99.90
12604;DHT22;6367;52.508;13.284;2022-12-18T14:30:44;-0.40;99.90
12604;DHT22;6367;52.508;13.284;2022-12-18T14:33:14;-0.70;99.90
12604;DHT22;6367;52.508;13.284;2022-12-18T14:35:43;-0.60;99.90
12604;DHT22;6367;52.508;13.284;2022-12-18T14:38:30;-0.50;99.90
12604;DHT22;6367;52.508;13.284;2022-12-18T14:40:59;-0.50;99.90
12604;DHT22;6367;52.508;13.284;2022-12-18T14:43:26;-0.60;99.90
12604;DHT22;6367;52.508;13.284;2022-12-18T14:45:52;-0.70;99.90
12604;DHT22;6367;52.508;13.284;2022-12-18T14:51:03;-0.60;99.90
12604;DHT22;6367;52.508;13.284;2022-12-18T14:53:34;-0.60;99.90
12604;DHT22;6367;52.508;13.284;2022-12-18T14:56:01;-0.60;99.90
12604;DHT22;6367;52.508;13.284;2022-12-18T14:58:27;-0.70;99.90
12604;DHT22;6367;52.508;13.284;2022-12-18T15:00:53;-0.60;99.90
12604;DHT22;6367;52.508;13.284;2022-12-18T15:03:20;0.00;99.90
12604;DHT22;6367;52.508;13.284;2022-12-18T15:05:47;-0.60;99.90
12604;DHT22;6367;52.508;13.284;2022-12-18T15:08:31;-1.10;99.90
12604;DHT22;6367;52.508;13.284;2022-12-18T15:10:59;-0.60;99.90
12604;DHT22;6367;52.508;13.284;2022-12-18T15:13:25;-0.60;99.90
12604;DHT22;6367;52.508;13.284;2022-12-18T15:15:53;-0.70;99.90
12604;DHT22;6367;52.508;13.284;2022-12-18T15:18:41;-0.80;99.90
12604;DHT22;6367;52.508;13.284;2022-12-18T15:21:09;-0.60;99.90
12604;DHT22;6367;52.508;13.284;2022-12-18T15:26:09;-0.70;99.90
12604;DHT22;6367;52.508;13.284;2022-12-18T15:28:38;-0.30;99.90
12604;DHT22;6367;52.508;13.284;2022-12-18T15:36:30;-0.80;99.90
12604;DHT22;6367;52.508;13.284;2022-12-18T15:38:56;-0.90;99.90
12604;DHT22;6367;52.508;13.284;2022-12-18T15:41:25;-0.80;99.90
12604;DHT22;6367;52.508;13.284;2022-12-18T15:43:53;-1.00;99.90
12604;DHT22;6367;52.508;13.284;2022-12-18T15:46:21;-0.90;99.90
12604;DHT22;6367;52.508;13.284;2022-12-18T15:48:52;-0.90;99.90
12604;DHT22;6367;52.508;13.284;2022-12-18T15:51:23;-0.80;99.90
12604;DHT22;6367;52.508;13.284;2022-12-18T15:53:53;-0.90;99.80
12604;DHT22;6367;52.508;13.284;2022-12-18T15:56:20;-0.90;99.50
12604;DHT22;6367;52.508;13.284;2022-12-18T15:59:12;-1.10;99.50
12604;DHT22;6367;52.508;13.284;2022-12-18T16:01:38;-1.10;99.60
12604;DHT22;6367;52.508;13.284;2022-12-18T16:04:03;-1.20;99.90
12604;DHT22;6367;52.508;13.284;2022-12-18T16:06:29;-1.40;99.90
12604;DHT22;6367;52.508;13.284;2022-12-18T16:08:55;-1.30;99.90
12604;DHT22;6367;52.508;13.284;2022-12-18T16:11:30;-1.20;99.90
12604;DHT22;6367;52.508;13.284;2022-12-18T16:14:28;-1.30;99.90
12604;DHT22;6367;52.508;13.284;2022-12-18T16:16:56;-1.20;99.90
12604;DHT22;6367;52.508;13.284;2022-12-18T16:19:22;-0.50;99.90
12604;DHT22;6367;52.508;13.284;2022-12-18T16:21:48;-1.20;99.90
12604;DHT22;6367;52.508;13.284;2022-12-18T16:24:20;-1.30;99.90
12604;DHT22;6367;52.508;13.284;2022-12-18T16:26:49;-1.40;99.90
12604;DHT22;6367;52.508;13.284;2022-12-18T16:29:17;-1.40;99.90
12604;DHT22;6367;52.508;13.284;2022-12-18T16:31:43;-1.50;99.90
12604;DHT22;6367;52.508;13.284;2022-12-18T16:34:26;-1.40;99.90
12604;DHT22;6367;52.508;13.284;2022-12-18T16:36:57;-1.30;99.90
12604;DHT22;6367;52.508;13.284;2022-12-18T16:39:24;-1.20;99.90
12604;DHT22;6367;52.508;13.284;2022-12-18T16:41:50;-1.30;99.90
12604;DHT22;6367;52.508;13.284;2022-12-18T16:44:15;-1.30;99.90
12604;DHT22;6367;52.508;13.284;2022-12-18T16:46:41;-1.30;99.80
12604;DHT22;6367;52.508;13.284;2022-12-18T16:49:15;-1.20;99.90
12604;DHT22;6367;52.508;13.284;2022-12-18T16:51:42;-1.10;99.90
12604;DHT22;6367;52.508;13.284;2022-12-18T16:54:07;-1.10;99.90
12604;DHT22;6367;52.508;13.284;2022-12-18T16:56:33;-1.10;99.90
12604;DHT22;6367;52.508;13.284;2022-12-18T16:59:00;-1.10;99.90
12604;DHT22;6367;52.508;13.284;2022-12-18T17:01:28;-0.50;99.90
12604;DHT22;6367;52.508;13.284;2022-12-18T17:04:01;-1.10;99.90
12604;DHT22;6367;52.508;13.284;2022-12-18T17:06:29;-1.30;99.80
12604;DHT22;6367;52.508;13.284;2022-12-18T17:08:56;-0.60;99.90
12604;DHT22;6367;52.508;13.284;2022-12-18T17:11:24;-1.10;99.90
12604;DHT22;6367;52.508;13.284;2022-12-18T17:13:49;-0.70;99.90
12604;DHT22;6367;52.508;13.284;2022-12-18T17:16:15;-1.00;99.70
12604;DHT22;6367;52.508;13.284;2022-12-18T17:18:42;-0.90;99.80
12604;DHT22;6367;52.508;13.284;2022-12-18T17:21:08;-1.00;99.70
12604;DHT22;6367;52.508;13.284;2022-12-18T17:23:36;-0.90;99.70
12604;DHT22;6367;52.508;13.284;2022-12-18T17:26:02;-0.80;99.40
12604;DHT22;6367;52.508;13.284;2022-12-18T17:28:29;-0.80;99.30